Terminal Aerodrome Forecast
Issued by NWS

Home | Current Version | Previous Version | Text Only | Print | Product List | Glossary On
Versions: 1 2 3 4 5 6 7 8 9 10 11 12
000
FTUS44 KLZK 242336
TAFADF
TAF
KADF 242336Z 2500/2524 16005KT P6SM VCTS BKN050CB BKN120
      TEMPO 2502/2505 VRB20G30KT 2SM TSRA OVC025CB
     FM250500 VRB03KT P6SM SCT120 BKN250
     FM251400 08005KT P6SM SCT030 BKN080
     FM251800 05005KT P6SM VCTS SCT030CB OVC060 PROB30 2520/2524 4SM
      TSRA BR BKN030CB
      AMD NOT SKED=

USA.gov is the U.S. government's official web portal to all federal, state and local government web resources and services.